Ana Sayfa
METAR-TAF:

METAR-TAF

Havaalanları :

Jinotega, Nikaragua

Enlem: 13-05N, Boylam: 085-59W, yükseklik: 985 m

Güncel hava durumu gözlemi

Rapor saat 12:00 UTC de 37 dakika önce yapıldı.
Sakin rüzgar
Sıcaklık 21°C
Nem 94%
Basınç 1012 hPa
Görüş mesafesi: 3000 m
600 ft yükseklikte çok bulutlu
çisenti,

METAR: MNJG 171200Z 00000KT 3000 DZ OVC006 21/20 Q1012

Saat: 06:37 (12:37 UTC)


TAF: eksik

4.000'den fazla havaalanı için hava durumu gözlemleri ve tahminleri (METAR ve TAF raporları).

Kullanılabilir istasyonlar harita üzerinde sarı ve kırmızı noktalarla gösterilir.

İstasyonun adını görmek için fareyi noktanın üzerinde gezdirin.

Sonrasında hava gözlem ve tahminlerini görmek için tıklayın.

Haritayı değiştirmek için: yaklaştırmak için siyah artı işaretli yeşil düğmeye ve uzaklaştırmak için de eksi işaretli düğmeye hızla tıklayın; bitişik haritalar için yeşil okları kullanın.


METAR-TAF: